sensor_id;sensor_type;location;lat;lon;timestamp;pressure;altitude;pressure_sealevel;temperature;humidity
27805;BME280;15183;51.350;11.102;2023-03-26T00:01:20;99038.41;;;11.73;60.36
27805;BME280;15183;51.350;11.102;2023-03-26T00:03:47;99049.81;;;11.69;60.50
27805;BME280;15183;51.350;11.102;2023-03-26T00:06:28;99024.25;;;11.57;60.32
27805;BME280;15183;51.350;11.102;2023-03-26T00:08:56;99007.94;;;11.43;60.19
27805;BME280;15183;51.350;11.102;2023-03-26T00:11:26;98960.44;;;11.09;60.11
27805;BME280;15183;51.350;11.102;2023-03-26T00:13:53;99046.81;;;11.60;60.37
27805;BME280;15183;51.350;11.102;2023-03-26T00:16:24;99030.00;;;11.49;60.10
27805;BME280;15183;51.350;11.102;2023-03-26T00:18:51;99022.03;;;11.49;60.09
27805;BME280;15183;51.350;11.102;2023-03-26T00:21:22;99041.06;;;11.41;59.92
27805;BME280;15183;51.350;11.102;2023-03-26T00:23:55;99050.66;;;11.47;60.02
27805;BME280;15183;51.350;11.102;2023-03-26T00:26:23;99048.31;;;11.51;60.12
27805;BME280;15183;51.350;11.102;2023-03-26T00:28:50;99036.03;;;11.39;60.05
27805;BME280;15183;51.350;11.102;2023-03-26T00:31:17;99029.84;;;11.34;60.03
27805;BME280;15183;51.350;11.102;2023-03-26T00:33:44;99049.56;;;11.43;60.13
27805;BME280;15183;51.350;11.102;2023-03-26T00:36:14;99040.28;;;11.40;60.38
27805;BME280;15183;51.350;11.102;2023-03-26T00:38:43;99041.09;;;11.46;60.45
27805;BME280;15183;51.350;11.102;2023-03-26T00:41:16;99040.31;;;11.46;60.14
27805;BME280;15183;51.350;11.102;2023-03-26T00:43:44;99042.16;;;11.45;60.46
27805;BME280;15183;51.350;11.102;2023-03-26T00:46:15;99039.81;;;11.49;60.38
27805;BME280;15183;51.350;11.102;2023-03-26T00:48:44;99032.38;;;11.46;60.75
27805;BME280;15183;51.350;11.102;2023-03-26T00:51:14;99031.34;;;11.52;60.58
27805;BME280;15183;51.350;11.102;2023-03-26T00:53:42;99041.41;;;11.50;60.86
27805;BME280;15183;51.350;11.102;2023-03-26T00:56:09;99016.78;;;11.27;61.42
27805;BME280;15183;51.350;11.102;2023-03-26T00:58:35;99046.38;;;11.41;61.10
27805;BME280;15183;51.350;11.102;2023-03-26T01:01:06;99004.13;;;11.07;61.68
27805;BME280;15183;51.350;11.102;2023-03-26T01:03:35;99027.41;;;11.27;61.51
27805;BME280;15183;51.350;11.102;2023-03-26T01:06:13;99012.13;;;11.12;61.72
27805;BME280;15183;51.350;11.102;2023-03-26T01:08:50;99018.31;;;11.18;61.85
27805;BME280;15183;51.350;11.102;2023-03-26T01:11:27;99028.34;;;11.15;61.93
27805;BME280;15183;51.350;11.102;2023-03-26T01:14:16;99030.69;;;11.12;61.96
27805;BME280;15183;51.350;11.102;2023-03-26T01:16:57;99036.63;;;11.19;62.27
27805;BME280;15183;51.350;11.102;2023-03-26T01:22:05;99051.03;;;11.28;62.17
27805;BME280;15183;51.350;11.102;2023-03-26T01:24:34;99060.63;;;11.35;61.96
27805;BME280;15183;51.350;11.102;2023-03-26T01:27:32;99062.00;;;11.37;62.18
27805;BME280;15183;51.350;11.102;2023-03-26T01:33:22;99058.75;;;11.35;62.85
27805;BME280;15183;51.350;11.102;2023-03-26T01:36:08;99031.38;;;11.24;62.39
27805;BME280;15183;51.350;11.102;2023-03-26T01:39:09;99045.03;;;11.38;62.43
27805;BME280;15183;51.350;11.102;2023-03-26T01:46:50;99055.59;;;11.61;62.02
27805;BME280;15183;51.350;11.102;2023-03-26T01:49:17;99036.97;;;11.55;62.16
27805;BME280;15183;51.350;11.102;2023-03-26T01:51:44;99038.34;;;11.63;62.10
27805;BME280;15183;51.350;11.102;2023-03-26T01:54:17;99022.94;;;11.60;62.36
27805;BME280;15183;51.350;11.102;2023-03-26T02:02:57;99030.47;;;11.73;62.19
27805;BME280;15183;51.350;11.102;2023-03-26T02:08:40;99030.97;;;11.70;62.27
27805;BME280;15183;51.350;11.102;2023-03-26T02:11:13;99014.78;;;11.67;61.73
27805;BME280;15183;51.350;11.102;2023-03-26T02:13:42;99011.81;;;11.63;61.85
27805;BME280;15183;51.350;11.102;2023-03-26T02:16:12;99014.50;;;11.68;61.91
27805;BME280;15183;51.350;11.102;2023-03-26T02:18:40;99003.31;;;11.61;62.20
27805;BME280;15183;51.350;11.102;2023-03-26T02:21:13;99011.19;;;11.51;61.85
27805;BME280;15183;51.350;11.102;2023-03-26T02:23:42;99000.22;;;11.42;62.13
27805;BME280;15183;51.350;11.102;2023-03-26T02:26:15;99014.03;;;11.44;62.32
27805;BME280;15183;51.350;11.102;2023-03-26T02:28:41;99009.22;;;11.41;62.02
27805;BME280;15183;51.350;11.102;2023-03-26T02:31:08;99004.44;;;11.38;62.20
27805;BME280;15183;51.350;11.102;2023-03-26T02:33:36;98999.63;;;11.35;61.86
27805;BME280;15183;51.350;11.102;2023-03-26T02:36:04;99017.22;;;11.46;62.25
27805;BME280;15183;51.350;11.102;2023-03-26T02:38:32;99018.31;;;11.50;62.08
27805;BME280;15183;51.350;11.102;2023-03-26T02:41:01;99014.94;;;11.55;62.01
27805;BME280;15183;51.350;11.102;2023-03-26T02:43:27;98935.22;;;11.07;61.69
27805;BME280;15183;51.350;11.102;2023-03-26T02:45:54;99016.09;;;11.69;61.81
27805;BME280;15183;51.350;11.102;2023-03-26T02:48:20;99014.28;;;11.75;61.78
27805;BME280;15183;51.350;11.102;2023-03-26T02:50:47;99020.72;;;11.84;61.80
27805;BME280;15183;51.350;11.102;2023-03-26T02:53:15;99023.13;;;11.86;61.72
27805;BME280;15183;51.350;11.102;2023-03-26T02:55:42;99021.56;;;11.90;61.59
27805;BME280;15183;51.350;11.102;2023-03-26T02:58:08;98940.53;;;11.39;61.40
27805;BME280;15183;51.350;11.102;2023-03-26T03:00:35;99006.19;;;11.92;61.43
27805;BME280;15183;51.350;11.102;2023-03-26T03:03:01;99003.53;;;11.92;61.68
27805;BME280;15183;51.350;11.102;2023-03-26T03:05:31;99010.53;;;12.04;61.16
27805;BME280;15183;51.350;11.102;2023-03-26T03:07:58;99017.47;;;12.10;61.24
27805;BME280;15183;51.350;11.102;2023-03-26T03:10:26;98960.44;;;11.75;61.15
27805;BME280;15183;51.350;11.102;2023-03-26T03:12:53;99013.75;;;12.11;61.00
27805;BME280;15183;51.350;11.102;2023-03-26T03:15:20;99022.84;;;12.15;61.40
27805;BME280;15183;51.350;11.102;2023-03-26T03:17:46;98999.94;;;12.09;61.17
27805;BME280;15183;51.350;11.102;2023-03-26T03:20:12;99003.19;;;12.16;61.15
27805;BME280;15183;51.350;11.102;2023-03-26T03:22:39;98993.91;;;12.19;60.92
27805;BME280;15183;51.350;11.102;2023-03-26T03:25:06;98994.97;;;12.23;61.09
27805;BME280;15183;51.350;11.102;2023-03-26T03:27:43;99001.13;;;12.28;60.85
27805;BME280;15183;51.350;11.102;2023-03-26T03:30:12;99004.34;;;12.30;60.93
27805;BME280;15183;51.350;11.102;2023-03-26T03:32:38;98990.75;;;12.27;60.94
27805;BME280;15183;51.350;11.102;2023-03-26T03:35:05;99000.91;;;12.35;60.66
27805;BME280;15183;51.350;11.102;2023-03-26T03:37:32;98967.03;;;12.10;60.55
27805;BME280;15183;51.350;11.102;2023-03-26T03:39:58;98989.69;;;12.23;60.72
27805;BME280;15183;51.350;11.102;2023-03-26T03:42:25;98998.47;;;12.23;60.73
27805;BME280;15183;51.350;11.102;2023-03-26T03:44:52;98974.72;;;12.06;60.66
27805;BME280;15183;51.350;11.102;2023-03-26T03:47:18;98970.09;;;11.91;60.68
27805;BME280;15183;51.350;11.102;2023-03-26T03:49:45;99011.97;;;12.22;60.66
27805;BME280;15183;51.350;11.102;2023-03-26T03:52:11;98988.03;;;12.11;60.70
27805;BME280;15183;51.350;11.102;2023-03-26T03:54:38;98988.56;;;12.13;60.42
27805;BME280;15183;51.350;11.102;2023-03-26T03:57:04;99015.75;;;12.31;60.52
27805;BME280;15183;51.350;11.102;2023-03-26T03:59:31;98999.78;;;12.26;60.38
27805;BME280;15183;51.350;11.102;2023-03-26T04:01:57;98981.41;;;12.14;60.23
27805;BME280;15183;51.350;11.102;2023-03-26T04:04:23;98999.53;;;12.27;60.47
27805;BME280;15183;51.350;11.102;2023-03-26T04:06:50;98997.66;;;12.23;60.47
27805;BME280;15183;51.350;11.102;2023-03-26T04:09:18;98992.06;;;12.19;60.72
27805;BME280;15183;51.350;11.102;2023-03-26T04:11:44;99005.88;;;12.21;60.39
27805;BME280;15183;51.350;11.102;2023-03-26T04:14:10;98993.63;;;12.15;60.31
27805;BME280;15183;51.350;11.102;2023-03-26T04:16:37;98989.66;;;12.18;60.38
27805;BME280;15183;51.350;11.102;2023-03-26T04:19:03;98953.13;;;11.97;60.32
27805;BME280;15183;51.350;11.102;2023-03-26T04:21:30;98956.34;;;11.99;60.61
27805;BME280;15183;51.350;11.102;2023-03-26T04:23:56;98993.38;;;12.22;60.25
27805;BME280;15183;51.350;11.102;2023-03-26T04:26:22;98973.94;;;12.11;60.28
27805;BME280;15183;51.350;11.102;2023-03-26T04:28:54;98968.81;;;11.99;60.48
27805;BME280;15183;51.350;11.102;2023-03-26T04:31:23;98978.44;;;12.05;60.48
27805;BME280;15183;51.350;11.102;2023-03-26T04:33:58;98957.03;;;11.84;60.84
27805;BME280;15183;51.350;11.102;2023-03-26T04:36:29;98970.88;;;11.92;60.37
27805;BME280;15183;51.350;11.102;2023-03-26T04:38:57;98997.84;;;12.11;60.60
27805;BME280;15183;51.350;11.102;2023-03-26T04:41:30;98991.44;;;12.07;60.76
27805;BME280;15183;51.350;11.102;2023-03-26T04:43:57;98972.78;;;11.96;60.73
27805;BME280;15183;51.350;11.102;2023-03-26T04:46:27;98989.09;;;12.10;60.59
27805;BME280;15183;51.350;11.102;2023-03-26T04:48:53;98987.69;;;12.02;60.76
27805;BME280;15183;51.350;11.102;2023-03-26T04:51:25;98969.53;;;11.84;60.36
27805;BME280;15183;51.350;11.102;2023-03-26T04:53:56;98988.41;;;11.93;60.52
27805;BME280;15183;51.350;11.102;2023-03-26T04:56:49;98992.91;;;11.92;60.89
27805;BME280;15183;51.350;11.102;2023-03-26T04:59:25;98968.66;;;11.78;60.66
27805;BME280;15183;51.350;11.102;2023-03-26T05:01:56;98970.56;;;11.83;60.74
27805;BME280;15183;51.350;11.102;2023-03-26T05:04:25;98975.41;;;11.91;60.73
27805;BME280;15183;51.350;11.102;2023-03-26T05:06:52;98959.41;;;11.81;60.69
27805;BME280;15183;51.350;11.102;2023-03-26T05:09:19;98973.81;;;11.90;60.56
27805;BME280;15183;51.350;11.102;2023-03-26T05:11:45;98952.94;;;11.66;60.55
27805;BME280;15183;51.350;11.102;2023-03-26T05:14:13;98969.69;;;11.72;60.96
27805;BME280;15183;51.350;11.102;2023-03-26T05:16:40;98951.47;;;11.48;60.72
27805;BME280;15183;51.350;11.102;2023-03-26T05:19:06;98973.84;;;11.57;60.97
27805;BME280;15183;51.350;11.102;2023-03-26T05:21:33;98985.53;;;11.62;60.75
27805;BME280;15183;51.350;11.102;2023-03-26T05:24:00;98974.91;;;11.56;61.02
27805;BME280;15183;51.350;11.102;2023-03-26T05:26:27;98905.38;;;11.22;60.94
27805;BME280;15183;51.350;11.102;2023-03-26T05:28:55;98966.28;;;11.77;61.12
27805;BME280;15183;51.350;11.102;2023-03-26T05:31:22;98942.63;;;11.70;60.66
27805;BME280;15183;51.350;11.102;2023-03-26T05:33:48;98926.94;;;11.68;60.56
27805;BME280;15183;51.350;11.102;2023-03-26T05:36:15;98945.13;;;11.87;60.77
27805;BME280;15183;51.350;11.102;2023-03-26T05:38:42;98950.75;;;11.96;60.59
27805;BME280;15183;51.350;11.102;2023-03-26T05:41:15;98965.69;;;12.07;60.65
27805;BME280;15183;51.350;11.102;2023-03-26T05:43:42;98965.72;;;12.12;60.31
27805;BME280;15183;51.350;11.102;2023-03-26T05:46:13;98957.53;;;12.14;60.69
27805;BME280;15183;51.350;11.102;2023-03-26T05:48:40;98939.88;;;11.97;60.47
27805;BME280;15183;51.350;11.102;2023-03-26T05:51:07;98866.88;;;11.47;61.03
27805;BME280;15183;51.350;11.102;2023-03-26T05:53:33;98963.81;;;12.02;60.89
27805;BME280;15183;51.350;11.102;2023-03-26T05:56:00;98946.72;;;11.88;60.45
27805;BME280;15183;51.350;11.102;2023-03-26T05:58:30;98924.88;;;11.76;60.67
27805;BME280;15183;51.350;11.102;2023-03-26T06:01:05;98947.78;;;11.87;61.02
27805;BME280;15183;51.350;11.102;2023-03-26T06:03:36;98943.00;;;11.89;60.72
27805;BME280;15183;51.350;11.102;2023-03-26T06:06:05;98943.00;;;11.89;60.70
27805;BME280;15183;51.350;11.102;2023-03-26T06:08:32;98951.28;;;11.98;60.77
27805;BME280;15183;51.350;11.102;2023-03-26T06:11:00;98958.00;;;12.11;60.73
27805;BME280;15183;51.350;11.102;2023-03-26T06:13:28;98948.44;;;12.10;60.91
27805;BME280;15183;51.350;11.102;2023-03-26T06:15:55;98892.00;;;11.77;60.21
27805;BME280;15183;51.350;11.102;2023-03-26T06:18:24;98935.22;;;12.15;60.56
27805;BME280;15183;51.350;11.102;2023-03-26T06:20:51;98948.59;;;12.41;60.80
27805;BME280;15183;51.350;11.102;2023-03-26T06:23:18;98953.97;;;12.51;60.60
27805;BME280;15183;51.350;11.102;2023-03-26T06:25:45;98949.97;;;12.54;60.58
27805;BME280;15183;51.350;11.102;2023-03-26T06:28:12;98939.88;;;12.51;60.37
27805;BME280;15183;51.350;11.102;2023-03-26T06:30:38;98876.50;;;12.11;60.60
27805;BME280;15183;51.350;11.102;2023-03-26T06:33:05;98939.38;;;12.64;60.27
27805;BME280;15183;51.350;11.102;2023-03-26T06:35:32;98940.97;;;12.65;60.33
27805;BME280;15183;51.350;11.102;2023-03-26T06:37:58;98954.56;;;12.79;60.09
27805;BME280;15183;51.350;11.102;2023-03-26T06:40:25;98945.53;;;12.75;60.55
27805;BME280;15183;51.350;11.102;2023-03-26T06:42:51;98899.47;;;12.49;60.24
27805;BME280;15183;51.350;11.102;2023-03-26T06:45:18;98959.66;;;13.01;60.01
27805;BME280;15183;51.350;11.102;2023-03-26T06:47:44;98889.69;;;12.54;59.92
27805;BME280;15183;51.350;11.102;2023-03-26T06:50:11;98945.03;;;12.94;60.20
27805;BME280;15183;51.350;11.102;2023-03-26T06:52:37;98957.28;;;13.10;60.05
27805;BME280;15183;51.350;11.102;2023-03-26T06:55:04;98948.00;;;13.08;59.32
27805;BME280;15183;51.350;11.102;2023-03-26T06:57:33;98932.28;;;13.01;59.55
27805;BME280;15183;51.350;11.102;2023-03-26T07:00:00;98953.03;;;13.14;59.37
27805;BME280;15183;51.350;11.102;2023-03-26T07:02:27;98874.28;;;12.67;59.27
27805;BME280;15183;51.350;11.102;2023-03-26T07:04:53;98932.03;;;13.13;59.95
27805;BME280;15183;51.350;11.102;2023-03-26T07:07:19;98919.81;;;13.17;59.73
27805;BME280;15183;51.350;11.102;2023-03-26T07:09:49;98941.06;;;13.38;59.99
27805;BME280;15183;51.350;11.102;2023-03-26T07:12:16;98904.91;;;13.31;59.72
27805;BME280;15183;51.350;11.102;2023-03-26T07:14:42;98931.00;;;13.55;59.40
27805;BME280;15183;51.350;11.102;2023-03-26T07:17:09;98922.19;;;13.60;59.98
27805;BME280;15183;51.350;11.102;2023-03-26T07:19:35;98923.53;;;13.68;59.63
27805;BME280;15183;51.350;11.102;2023-03-26T07:22:02;98902.75;;;13.65;59.28
27805;BME280;15183;51.350;11.102;2023-03-26T07:24:29;98859.13;;;13.40;59.32
27805;BME280;15183;51.350;11.102;2023-03-26T07:30:07;98895.50;;;13.91;59.39
27805;BME280;15183;51.350;11.102;2023-03-26T07:38:51;98923.38;;;14.25;59.02
27805;BME280;15183;51.350;11.102;2023-03-26T07:47:32;98906.03;;;14.27;59.13
27805;BME280;15183;51.350;11.102;2023-03-26T07:49:59;98898.81;;;14.38;59.11
27805;BME280;15183;51.350;11.102;2023-03-26T07:52:26;98896.41;;;14.42;59.02
27805;BME280;15183;51.350;11.102;2023-03-26T07:54:53;98869.44;;;14.43;58.61
27805;BME280;15183;51.350;11.102;2023-03-26T07:57:55;98898.91;;;14.73;58.81
27805;BME280;15183;51.350;11.102;2023-03-26T08:00:44;98889.00;;;14.79;58.67
27805;BME280;15183;51.350;11.102;2023-03-26T08:03:36;98885.50;;;14.83;58.37
27805;BME280;15183;51.350;11.102;2023-03-26T08:06:27;98877.69;;;14.92;58.71
27805;BME280;15183;51.350;11.102;2023-03-26T08:09:16;98886.38;;;15.08;58.37
27805;BME280;15183;51.350;11.102;2023-03-26T08:20:48;98877.75;;;15.22;58.13
27805;BME280;15183;51.350;11.102;2023-03-26T08:26:47;98869.75;;;15.22;58.20
27805;BME280;15183;51.350;11.102;2023-03-26T08:29:47;98867.34;;;15.20;57.93
27805;BME280;15183;51.350;11.102;2023-03-26T08:32:19;98851.69;;;15.08;57.60
27805;BME280;15183;51.350;11.102;2023-03-26T08:34:46;98877.34;;;15.33;57.77
27805;BME280;15183;51.350;11.102;2023-03-26T08:37:12;98875.50;;;15.34;57.57
27805;BME280;15183;51.350;11.102;2023-03-26T08:39:39;98855.19;;;15.38;57.43
27805;BME280;15183;51.350;11.102;2023-03-26T08:45:24;98869.25;;;15.73;57.55
27805;BME280;15183;51.350;11.102;2023-03-26T08:51:12;98862.50;;;16.05;57.00
27805;BME280;15183;51.350;11.102;2023-03-26T09:09:25;98855.53;;;16.29;55.98
27805;BME280;15183;51.350;11.102;2023-03-26T09:15:42;98855.03;;;16.46;56.28
27805;BME280;15183;51.350;11.102;2023-03-26T09:36:40;98803.41;;;16.45;55.41
27805;BME280;15183;51.350;11.102;2023-03-26T09:39:38;98803.69;;;16.63;55.60
27805;BME280;15183;51.350;11.102;2023-03-26T09:42:43;98801.06;;;16.77;55.66
27805;BME280;15183;51.350;11.102;2023-03-26T09:46:33;98804.94;;;17.04;54.98
27805;BME280;15183;51.350;11.102;2023-03-26T09:52:43;98788.91;;;17.46;54.93
27805;BME280;15183;51.350;11.102;2023-03-26T10:01:30;98780.06;;;17.87;53.65
27805;BME280;15183;51.350;11.102;2023-03-26T10:04:43;98776.59;;;17.87;53.84
27805;BME280;15183;51.350;11.102;2023-03-26T10:10:52;98779.81;;;17.61;53.96
27805;BME280;15183;51.350;11.102;2023-03-26T10:13:25;98777.41;;;17.59;53.95
27805;BME280;15183;51.350;11.102;2023-03-26T10:31:50;98737.94;;;18.39;52.88
27805;BME280;15183;51.350;11.102;2023-03-26T10:41:07;98755.41;;;18.82;51.16
27805;BME280;15183;51.350;11.102;2023-03-26T10:52:40;98739.03;;;18.37;51.55
27805;BME280;15183;51.350;11.102;2023-03-26T10:55:30;98740.00;;;18.42;51.47
27805;BME280;15183;51.350;11.102;2023-03-26T11:01:02;98672.16;;;17.96;51.42
27805;BME280;15183;51.350;11.102;2023-03-26T11:03:51;98728.03;;;18.39;51.37
27805;BME280;15183;51.350;11.102;2023-03-26T11:20:49;98746.28;;;18.14;51.03
27805;BME280;15183;51.350;11.102;2023-03-26T11:23:48;98737.25;;;18.10;50.94
27805;BME280;15183;51.350;11.102;2023-03-26T11:26:37;98721.19;;;17.96;51.10
27805;BME280;15183;51.350;11.102;2023-03-26T11:32:08;98747.28;;;18.04;51.04
27805;BME280;15183;51.350;11.102;2023-03-26T11:34:58;98741.53;;;18.11;51.06
27805;BME280;15183;51.350;11.102;2023-03-26T11:40:03;98721.59;;;18.03;50.79
27805;BME280;15183;51.350;11.102;2023-03-26T11:42:36;98732.88;;;18.14;51.23
27805;BME280;15183;51.350;11.102;2023-03-26T11:45:18;98750.22;;;18.17;51.42
27805;BME280;15183;51.350;11.102;2023-03-26T11:47:50;98680.47;;;17.71;52.14
27805;BME280;15183;51.350;11.102;2023-03-26T11:50:24;98710.13;;;17.75;52.12
27805;BME280;15183;51.350;11.102;2023-03-26T11:52:57;98745.06;;;17.84;52.01
27805;BME280;15183;51.350;11.102;2023-03-26T11:55:24;98712.22;;;17.64;52.33
27805;BME280;15183;51.350;11.102;2023-03-26T11:57:56;98712.34;;;17.45;51.99
27805;BME280;15183;51.350;11.102;2023-03-26T12:00:25;98724.97;;;17.44;52.25
27805;BME280;15183;51.350;11.102;2023-03-26T12:02:57;98670.69;;;16.97;52.37
27805;BME280;15183;51.350;11.102;2023-03-26T12:05:27;98745.38;;;17.40;52.99
27805;BME280;15183;51.350;11.102;2023-03-26T12:07:59;98742.72;;;17.26;53.32
27805;BME280;15183;51.350;11.102;2023-03-26T12:10:34;98753.59;;;17.16;53.40
27805;BME280;15183;51.350;11.102;2023-03-26T12:13:28;98753.66;;;16.97;53.94
27805;BME280;15183;51.350;11.102;2023-03-26T12:16:12;98744.59;;;16.78;53.94
27805;BME280;15183;51.350;11.102;2023-03-26T12:18:41;98749.91;;;16.64;54.47
27805;BME280;15183;51.350;11.102;2023-03-26T12:21:18;98713.34;;;16.27;55.26
27805;BME280;15183;51.350;11.102;2023-03-26T12:24:01;98747.28;;;16.26;55.64
27805;BME280;15183;51.350;11.102;2023-03-26T12:26:43;98740.31;;;16.11;55.66
27805;BME280;15183;51.350;11.102;2023-03-26T12:29:16;98736.06;;;15.91;55.58
27805;BME280;15183;51.350;11.102;2023-03-26T12:32:07;98728.84;;;15.67;56.34
27805;BME280;15183;51.350;11.102;2023-03-26T12:34:39;98754.75;;;15.67;56.55
27805;BME280;15183;51.350;11.102;2023-03-26T12:37:30;98753.06;;;15.52;56.84
27805;BME280;15183;51.350;11.102;2023-03-26T12:40:32;98757.84;;;15.30;57.36
27805;BME280;15183;51.350;11.102;2023-03-26T12:43:05;98741.50;;;15.13;57.45
27805;BME280;15183;51.350;11.102;2023-03-26T12:45:50;98728.84;;;14.94;58.05
27805;BME280;15183;51.350;11.102;2023-03-26T12:48:19;98740.09;;;14.91;57.99
27805;BME280;15183;51.350;11.102;2023-03-26T12:57:24;98739.44;;;14.40;59.50
27805;BME280;15183;51.350;11.102;2023-03-26T13:00:22;98746.09;;;14.38;59.79
27805;BME280;15183;51.350;11.102;2023-03-26T13:03:26;98748.56;;;14.29;59.98
27805;BME280;15183;51.350;11.102;2023-03-26T13:09:20;98748.38;;;14.20;60.66
27805;BME280;15183;51.350;11.102;2023-03-26T13:17:25;98657.63;;;13.61;61.56
27805;BME280;15183;51.350;11.102;2023-03-26T13:20:44;98734.56;;;14.13;61.38
27805;BME280;15183;51.350;11.102;2023-03-26T13:23:41;98725.78;;;14.07;61.42
27805;BME280;15183;51.350;11.102;2023-03-26T13:26:45;98731.63;;;14.09;61.78
27805;BME280;15183;51.350;11.102;2023-03-26T13:30:05;98724.50;;;14.04;61.68
27805;BME280;15183;51.350;11.102;2023-03-26T13:35:53;98713.59;;;14.01;62.23
27805;BME280;15183;51.350;11.102;2023-03-26T13:41:34;98716.81;;;13.98;62.89
27805;BME280;15183;51.350;11.102;2023-03-26T13:44:26;98717.06;;;13.96;62.73
27805;BME280;15183;51.350;11.102;2023-03-26T13:47:02;98707.53;;;13.90;62.74
27805;BME280;15183;51.350;11.102;2023-03-26T13:49:37;98704.13;;;13.79;63.06
27805;BME280;15183;51.350;11.102;2023-03-26T13:52:19;98695.13;;;13.70;63.49
27805;BME280;15183;51.350;11.102;2023-03-26T13:55:05;98690.91;;;13.64;63.43
27805;BME280;15183;51.350;11.102;2023-03-26T13:57:40;98673.94;;;13.44;63.48
27805;BME280;15183;51.350;11.102;2023-03-26T14:00:19;98687.78;;;13.51;63.66
27805;BME280;15183;51.350;11.102;2023-03-26T14:03:12;98615.34;;;12.99;64.39
27805;BME280;15183;51.350;11.102;2023-03-26T14:05:48;98692.84;;;13.48;64.48
27805;BME280;15183;51.350;11.102;2023-03-26T14:08:37;98696.06;;;13.44;64.22
27805;BME280;15183;51.350;11.102;2023-03-26T14:14:27;98671.34;;;13.28;64.79
27805;BME280;15183;51.350;11.102;2023-03-26T14:17:03;98682.78;;;13.34;64.95
27805;BME280;15183;51.350;11.102;2023-03-26T14:26:20;98676.41;;;13.20;65.22
27805;BME280;15183;51.350;11.102;2023-03-26T14:35:35;98678.63;;;13.02;65.67
27805;BME280;15183;51.350;11.102;2023-03-26T14:38:29;98624.47;;;12.67;65.83
27805;BME280;15183;51.350;11.102;2023-03-26T14:41:32;98650.47;;;12.85;66.32
27805;BME280;15183;51.350;11.102;2023-03-26T14:46:47;98645.16;;;12.96;66.77
27805;BME280;15183;51.350;11.102;2023-03-26T14:49:53;98652.75;;;13.23;66.88
27805;BME280;15183;51.350;11.102;2023-03-26T14:53:10;98653.50;;;13.34;66.68
27805;BME280;15183;51.350;11.102;2023-03-26T15:01:25;98653.19;;;13.51;66.89
27805;BME280;15183;51.350;11.102;2023-03-26T15:11:03;98637.25;;;13.36;66.74
27805;BME280;15183;51.350;11.102;2023-03-26T15:20:39;98628.63;;;13.04;66.83
27805;BME280;15183;51.350;11.102;2023-03-26T15:31:58;98619.84;;;12.98;67.39
27805;BME280;15183;51.350;11.102;2023-03-26T15:41:15;98618.31;;;12.87;67.35
27805;BME280;15183;51.350;11.102;2023-03-26T15:49:27;98619.06;;;13.03;67.98
27805;BME280;15183;51.350;11.102;2023-03-26T15:52:33;98618.78;;;13.05;67.73
27805;BME280;15183;51.350;11.102;2023-03-26T15:58:20;98613.72;;;13.08;67.93
27805;BME280;15183;51.350;11.102;2023-03-26T16:03:45;98612.34;;;13.16;68.15
27805;BME280;15183;51.350;11.102;2023-03-26T16:07:00;98628.53;;;13.25;67.60
27805;BME280;15183;51.350;11.102;2023-03-26T16:12:26;98615.31;;;13.09;67.11
27805;BME280;15183;51.350;11.102;2023-03-26T16:23:29;98623.28;;;13.09;67.30
27805;BME280;15183;51.350;11.102;2023-03-26T16:26:08;98607.91;;;12.96;67.00
27805;BME280;15183;51.350;11.102;2023-03-26T16:29:20;98621.19;;;13.01;67.55
27805;BME280;15183;51.350;11.102;2023-03-26T16:32:22;98620.16;;;12.97;67.25
27805;BME280;15183;51.350;11.102;2023-03-26T16:34:58;98616.44;;;12.93;67.12
27805;BME280;15183;51.350;11.102;2023-03-26T16:54:21;98594.16;;;12.73;67.44
27805;BME280;15183;51.350;11.102;2023-03-26T16:57:24;98638.47;;;12.98;67.35
27805;BME280;15183;51.350;11.102;2023-03-26T17:00:03;98576.66;;;12.62;67.57
27805;BME280;15183;51.350;11.102;2023-03-26T17:05:31;98639.81;;;13.01;67.36
27805;BME280;15183;51.350;11.102;2023-03-26T17:11:45;98639.53;;;12.97;67.47
27805;BME280;15183;51.350;11.102;2023-03-26T17:23:58;98659.50;;;12.95;68.13
27805;BME280;15183;51.350;11.102;2023-03-26T17:32:12;98659.31;;;12.70;68.27
27805;BME280;15183;51.350;11.102;2023-03-26T17:47:55;98654.50;;;11.95;69.21
27805;BME280;15183;51.350;11.102;2023-03-26T17:50:30;98655.81;;;11.87;69.31
27805;BME280;15183;51.350;11.102;2023-03-26T17:53:04;98667.50;;;11.91;68.94
27805;BME280;15183;51.350;11.102;2023-03-26T17:55:36;98674.94;;;11.89;69.06
27805;BME280;15183;51.350;11.102;2023-03-26T18:03:55;98663.22;;;11.69;68.61
27805;BME280;15183;51.350;11.102;2023-03-26T18:06:58;98670.91;;;11.66;69.02
27805;BME280;15183;51.350;11.102;2023-03-26T18:10:17;98666.34;;;11.51;69.15
27805;BME280;15183;51.350;11.102;2023-03-26T18:18:56;98688.16;;;11.68;69.65
27805;BME280;15183;51.350;11.102;2023-03-26T18:21:37;98688.72;;;11.76;69.80
27805;BME280;15183;51.350;11.102;2023-03-26T18:24:11;98683.13;;;11.77;69.17
27805;BME280;15183;51.350;11.102;2023-03-26T18:26:50;98691.09;;;11.87;69.70
27805;BME280;15183;51.350;11.102;2023-03-26T18:29:32;98687.41;;;11.88;69.60
27805;BME280;15183;51.350;11.102;2023-03-26T18:34:39;98644.91;;;11.57;69.32
27805;BME280;15183;51.350;11.102;2023-03-26T18:37:20;98686.31;;;11.84;69.95
27805;BME280;15183;51.350;11.102;2023-03-26T18:40:13;98689.28;;;11.93;69.89
27805;BME280;15183;51.350;11.102;2023-03-26T18:42:52;98708.44;;;12.06;69.79
27805;BME280;15183;51.350;11.102;2023-03-26T18:45:36;98687.69;;;11.97;69.66
27805;BME280;15183;51.350;11.102;2023-03-26T18:48:17;98708.47;;;12.16;69.71
27805;BME280;15183;51.350;11.102;2023-03-26T18:51:03;98683.75;;;12.05;69.62
27805;BME280;15183;51.350;11.102;2023-03-26T18:53:41;98702.63;;;12.19;69.87
27805;BME280;15183;51.350;11.102;2023-03-26T18:56:36;98698.38;;;12.18;69.50